Time;durP1;ratioP1;P1;durP2;ratioP2;P2;SDS_P1;SDS_P2;PMS_P1;PMS_P2;Temp;Humidity;BMP_temperature;BMP_pressure;BME280_temperature;BME280_humidity;BME280_pressure;Samples;Min_cycle;Max_cycle;Signal;HPM_P1;HPM_P2
2021/10/05 00:02:05;;;;;;;2.37;2.17;;;13.10;99.90;;;;;;4974462;28;20231;-72
2021/10/05 00:04:30;;;;;;;2.23;1.97;;;13.10;99.90;;;;;;4977071;28;20177;-73
2021/10/05 00:06:56;;;;;;;2.40;2.20;;;13.00;99.90;;;;;;4977845;28;20215;-73
2021/10/05 00:09:21;;;;;;;2.60;2.40;;;13.10;99.90;;;;;;4978288;28;20582;-73
2021/10/05 00:11:47;;;;;;;3.73;1.90;;;13.00;99.90;;;;;;4976828;28;20173;-73
2021/10/05 00:14:12;;;;;;;2.37;2.17;;;12.90;99.90;;;;;;4977899;28;20205;-73
2021/10/05 00:16:38;;;;;;;3.30;2.43;;;12.90;99.90;;;;;;4977683;28;20236;-73
2021/10/05 00:19:03;;;;;;;2.70;1.93;;;12.90;99.90;;;;;;4969376;28;20188;-73
2021/10/05 00:21:29;;;;;;;2.53;2.00;;;12.90;99.90;;;;;;4974338;28;20192;-73
2021/10/05 00:23:54;;;;;;;3.03;2.20;;;12.90;99.90;;;;;;4977931;28;20739;-73
2021/10/05 00:26:20;;;;;;;2.40;2.20;;;12.90;99.90;;;;;;4978063;28;20196;-73
2021/10/05 00:28:45;;;;;;;2.47;2.27;;;12.90;99.90;;;;;;4976574;28;20267;-73
2021/10/05 00:31:11;;;;;;;2.97;2.30;;;12.90;99.90;;;;;;4978278;28;20271;-73
2021/10/05 00:33:36;;;;;;;2.57;2.03;;;12.80;99.90;;;;;;4977119;28;20232;-73
2021/10/05 00:36:02;;;;;;;2.87;2.40;;;12.80;99.90;;;;;;4977935;28;20239;-73
2021/10/05 00:38:28;;;;;;;2.07;1.97;;;12.80;99.90;;;;;;4977588;28;20248;-73
2021/10/05 00:40:53;;;;;;;4.20;2.20;;;12.70;99.90;;;;;;4977171;28;20180;-73
2021/10/05 00:43:19;;;;;;;2.40;2.20;;;12.70;99.90;;;;;;4976815;28;20185;-73
2021/10/05 00:45:45;;;;;;;2.67;2.43;;;12.70;99.90;;;;;;4978099;28;20684;-73
2021/10/05 00:48:11;;;;;;;2.17;2.03;;;12.70;99.90;;;;;;4977272;28;20455;-73
2021/10/05 00:50:36;;;;;;;2.43;2.27;;;12.70;99.90;;;;;;4977599;28;20200;-73
2021/10/05 00:53:02;;;;;;;2.20;2.00;;;12.70;99.90;;;;;;4976795;28;20204;-73
2021/10/05 00:55:27;;;;;;;2.87;2.20;;;12.70;99.90;;;;;;4969654;28;20759;-73
2021/10/05 00:57:53;;;;;;;3.00;2.37;;;12.70;99.90;;;;;;4963650;28;20177;-73
2021/10/05 01:00:21;;;;;;;3.23;2.23;;;12.70;99.90;;;;;;4957828;28;20178;-73
2021/10/05 01:02:47;;;;;;;2.10;1.90;;;12.70;99.90;;;;;;4958172;28;20177;-73
2021/10/05 01:05:13;;;;;;;2.30;1.90;;;12.70;99.90;;;;;;4976652;28;20440;-73
2021/10/05 01:07:40;;;;;;;2.20;2.10;;;12.70;99.90;;;;;;4977346;28;20491;-73
2021/10/05 01:10:06;;;;;;;2.07;1.97;;;12.70;99.90;;;;;;4977150;28;20445;-73
2021/10/05 01:12:32;;;;;;;1.87;1.77;;;12.70;99.90;;;;;;4977073;28;20251;-73
2021/10/05 01:14:57;;;;;;;2.27;2.10;;;12.70;99.90;;;;;;4975243;28;20813;-73
2021/10/05 01:17:23;;;;;;;3.80;2.23;;;12.70;99.90;;;;;;4975671;28;20243;-73
2021/10/05 01:19:49;;;;;;;2.80;2.03;;;12.70;99.90;;;;;;4975484;28;20593;-73
2021/10/05 01:22:14;;;;;;;1.97;1.77;;;12.70;99.90;;;;;;4976871;28;20216;-73
2021/10/05 01:24:40;;;;;;;2.23;1.73;;;12.60;99.90;;;;;;4976474;28;20169;-73
2021/10/05 01:27:05;;;;;;;2.20;2.10;;;12.60;99.90;;;;;;4977720;28;20173;-73
2021/10/05 01:29:33;;;;;;;1.90;1.80;;;12.60;99.90;;;;;;4976852;28;20220;-73
2021/10/05 01:32:01;;;;;;;2.10;1.90;;;12.50;99.90;;;;;;4977296;28;20192;-73
2021/10/05 01:34:27;;;;;;;2.60;2.37;;;12.40;99.90;;;;;;4976228;28;20893;-73
2021/10/05 01:36:54;;;;;;;2.27;2.07;;;12.40;99.90;;;;;;4976522;28;20428;-73
2021/10/05 01:39:24;;;;;;;2.00;1.90;;;12.40;99.90;;;;;;4976371;28;20467;-73
2021/10/05 01:41:52;;;;;;;2.00;1.90;;;12.30;99.90;;;;;;4976970;28;20516;-73
2021/10/05 01:44:18;;;;;;;2.03;1.93;;;12.20;99.90;;;;;;4974801;28;20425;-73
2021/10/05 01:46:43;;;;;;;2.27;2.17;;;12.20;99.90;;;;;;4976026;28;20440;-73
2021/10/05 01:49:13;;;;;;;2.37;2.17;;;12.20;99.90;;;;;;4979157;28;20177;-72
2021/10/05 01:51:39;;;;;;;2.73;2.30;;;12.20;99.90;;;;;;4985963;28;20629;-72
2021/10/05 01:54:05;;;;;;;2.20;2.00;;;12.20;99.90;;;;;;4976110;28;20466;-73
2021/10/05 01:56:30;;;;;;;1.87;1.77;;;12.30;99.90;;;;;;4976428;28;20373;-73
2021/10/05 01:58:56;;;;;;;5.60;1.90;;;12.30;99.90;;;;;;4976154;28;20541;-73
2021/10/05 02:01:21;;;;;;;2.10;1.87;;;12.40;99.90;;;;;;4976175;28;20173;-73
2021/10/05 02:03:47;;;;;;;1.80;1.70;;;12.40;99.90;;;;;;4975948;28;20181;-73
2021/10/05 02:06:12;;;;;;;2.63;2.20;;;12.50;99.90;;;;;;4976024;28;20189;-72
2021/10/05 02:08:38;;;;;;;2.83;2.33;;;12.50;99.90;;;;;;4975972;28;20260;-72
2021/10/05 02:11:03;;;;;;;2.10;1.77;;;12.40;99.90;;;;;;4975735;28;20264;-73
2021/10/05 02:13:30;;;;;;;2.20;2.00;;;12.40;99.90;;;;;;4975240;28;20654;-72
2021/10/05 02:15:55;;;;;;;2.57;2.37;;;12.40;99.90;;;;;;4975376;28;20583;-73
2021/10/05 02:18:21;;;;;;;3.00;2.13;;;12.30;99.90;;;;;;4981981;28;20421;-72
2021/10/05 02:20:47;;;;;;;2.93;2.73;;;12.30;99.90;;;;;;4983516;28;20654;-73
2021/10/05 02:23:12;;;;;;;3.47;1.80;;;12.30;99.90;;;;;;4976402;28;20203;-73
2021/10/05 02:25:38;;;;;;;2.30;2.10;;;12.40;99.90;;;;;;4974732;28;20225;-73
2021/10/05 02:28:04;;;;;;;2.00;1.90;;;12.40;99.90;;;;;;4975492;28;20172;-73
2021/10/05 02:30:30;;;;;;;2.67;2.17;;;12.40;99.90;;;;;;4974448;28;20235;-72
2021/10/05 02:32:56;;;;;;;2.40;2.20;;;12.40;99.90;;;;;;4975611;28;20501;-72
2021/10/05 02:35:22;;;;;;;2.20;2.10;;;12.40;99.90;;;;;;4968919;28;20801;-72
2021/10/05 02:37:47;;;;;;;2.13;2.03;;;12.40;99.90;;;;;;4961521;28;20618;-72
2021/10/05 02:40:13;;;;;;;2.50;2.30;;;12.40;99.90;;;;;;4969165;28;20208;-72
2021/10/05 02:42:39;;;;;;;2.30;2.10;;;12.40;99.90;;;;;;4975182;28;20271;-72
2021/10/05 02:45:06;;;;;;;3.50;2.10;;;12.40;99.90;;;;;;4974741;28;20208;-72
2021/10/05 02:47:31;;;;;;;2.10;2.00;;;12.40;99.90;;;;;;4975346;28;20416;-72
2021/10/05 02:49:57;;;;;;;2.17;2.07;;;12.40;99.90;;;;;;4975060;28;20420;-72
2021/10/05 02:52:24;;;;;;;2.70;2.50;;;12.40;99.90;;;;;;4974722;28;20208;-73
2021/10/05 02:54:50;;;;;;;2.80;2.60;;;12.40;99.90;;;;;;4973580;28;20200;-73
2021/10/05 02:57:19;;;;;;;2.17;2.07;;;12.30;99.90;;;;;;4975590;28;20749;-73
2021/10/05 02:59:46;;;;;;;3.20;2.90;;;12.30;99.90;;;;;;4974956;28;20796;-73
2021/10/05 03:02:12;;;;;;;3.50;3.20;;;12.30;99.90;;;;;;4974844;28;20412;-73
2021/10/05 03:04:38;;;;;;;3.70;2.67;;;12.30;99.90;;;;;;4974301;28;20440;-73
2021/10/05 03:07:05;;;;;;;4.33;4.03;;;12.30;99.90;;;;;;4975073;28;20419;-73
2021/10/05 03:09:31;;;;;;;2.93;2.63;;;12.30;99.90;;;;;;4975174;28;20404;-73
2021/10/05 03:11:57;;;;;;;4.03;3.73;;;12.30;99.90;;;;;;4974207;28;20435;-73
2021/10/05 03:14:23;;;;;;;3.03;2.73;;;12.30;99.90;;;;;;4973979;28;20463;-73
2021/10/05 03:16:48;;;;;;;3.40;3.10;;;12.30;99.90;;;;;;4967929;28;20251;-73
2021/10/05 03:19:14;;;;;;;3.80;3.20;;;12.40;99.90;;;;;;4974547;28;20505;-73
2021/10/05 03:21:40;;;;;;;3.03;2.73;;;12.40;99.90;;;;;;4973523;28;20180;-73
2021/10/05 03:24:07;;;;;;;3.90;3.50;;;12.40;99.90;;;;;;4973873;28;20201;-73
2021/10/05 03:26:32;;;;;;;5.23;3.60;;;12.40;99.90;;;;;;4974421;28;20440;-73
2021/10/05 03:28:58;;;;;;;3.47;3.17;;;12.40;99.90;;;;;;4974719;28;20423;-73
2021/10/05 03:31:24;;;;;;;3.10;2.90;;;12.40;99.90;;;;;;4974498;28;20177;-73
2021/10/05 03:33:49;;;;;;;3.60;3.20;;;12.40;99.90;;;;;;4974439;28;20255;-73
2021/10/05 03:36:15;;;;;;;3.80;3.50;;;12.30;99.90;;;;;;4973876;28;20221;-73
2021/10/05 03:38:43;;;;;;;4.87;4.47;;;12.30;99.90;;;;;;4977120;28;20653;-73
2021/10/05 03:41:09;;;;;;;3.40;3.10;;;12.30;99.90;;;;;;4978914;28;20176;-73
2021/10/05 03:43:35;;;;;;;4.20;3.80;;;12.40;99.90;;;;;;4978116;28;20917;-73
2021/10/05 03:46:01;;;;;;;4.37;3.33;;;12.30;99.90;;;;;;4974214;28;20467;-73
2021/10/05 03:48:27;;;;;;;4.90;4.50;;;12.40;99.90;;;;;;4967312;28;20432;-73
2021/10/05 03:50:53;;;;;;;3.83;3.53;;;12.30;99.90;;;;;;4959124;28;20177;-73
2021/10/05 03:53:20;;;;;;;3.97;3.57;;;12.30;99.90;;;;;;4958762;28;20205;-73
2021/10/05 03:55:56;;;;;;;5.63;3.53;;;12.30;99.90;;;;;;4959193;28;20492;-73
2021/10/05 03:58:23;;;;;;;3.93;3.63;;;12.30;99.90;;;;;;4968988;28;20428;-73
2021/10/05 04:00:49;;;;;;;3.70;3.40;;;12.30;99.90;;;;;;4968474;28;21014;-73
2021/10/05 04:03:15;;;;;;;4.10;3.80;;;12.30;99.90;;;;;;4969315;28;20448;-73
2021/10/05 04:05:41;;;;;;;4.93;4.43;;;12.30;99.90;;;;;;4968357;28;20444;-73
2021/10/05 04:08:06;;;;;;;4.20;3.90;;;12.20;99.90;;;;;;4962054;28;20627;-73
2021/10/05 04:10:32;;;;;;;4.40;4.00;;;12.30;99.90;;;;;;4966227;28;20588;-73
2021/10/05 04:12:58;;;;;;;5.03;4.50;;;12.30;99.90;;;;;;4965952;28;20260;-72
2021/10/05 04:15:24;;;;;;;4.90;4.50;;;12.30;99.90;;;;;;4968845;28;20235;-72
2021/10/05 04:17:49;;;;;;;5.27;4.87;;;12.30;99.90;;;;;;4961867;28;20213;-73
2021/10/05 04:20:15;;;;;;;5.17;4.67;;;12.20;99.90;;;;;;4978053;28;20180;-73
2021/10/05 04:22:41;;;;;;;6.43;4.50;;;12.20;99.90;;;;;;4978149;28;20188;-72
2021/10/05 04:25:08;;;;;;;5.43;4.97;;;12.20;99.90;;;;;;4977541;28;20467;-72
2021/10/05 04:27:34;;;;;;;5.93;5.33;;;12.20;99.90;;;;;;4978192;28;20222;-73
2021/10/05 04:30:00;;;;;;;5.43;5.03;;;12.10;99.90;;;;;;4973040;28;20427;-73
2021/10/05 04:32:25;;;;;;;6.38;5.80;;;12.10;99.90;;;;;;4968849;28;20454;-73
2021/10/05 04:34:51;;;;;;;5.77;5.17;;;12.20;99.90;;;;;;4959702;28;20753;-72
2021/10/05 04:37:16;;;;;;;5.93;5.20;;;12.20;99.90;;;;;;4974866;28;20205;-73
2021/10/05 04:39:42;;;;;;;6.70;6.00;;;12.20;99.90;;;;;;4974052;28;20227;-74
2021/10/05 04:42:08;;;;;;;6.40;5.33;;;12.10;99.90;;;;;;4976013;28;20208;-73
2021/10/05 04:44:34;;;;;;;5.50;5.00;;;12.10;99.90;;;;;;4979134;28;20468;-73
2021/10/05 04:46:59;;;;;;;6.40;5.80;;;12.10;99.90;;;;;;4985037;28;21256;-73
2021/10/05 04:49:25;;;;;;;6.07;5.30;;;12.20;99.90;;;;;;4980407;28;20613;-73
2021/10/05 04:51:50;;;;;;;5.73;5.23;;;12.10;99.90;;;;;;4993732;28;20235;-73
2021/10/05 04:54:16;;;;;;;6.53;5.93;;;12.10;99.90;;;;;;4976040;28;20256;-73
2021/10/05 04:56:42;;;;;;;6.03;5.53;;;12.10;99.90;;;;;;4975055;28;20232;-72
2021/10/05 04:59:08;;;;;;;7.23;6.20;;;12.10;99.90;;;;;;4989798;28;20233;-72
2021/10/05 05:01:33;;;;;;;7.00;6.23;;;12.10;99.90;;;;;;4993001;28;20200;-73
2021/10/05 05:03:59;;;;;;;7.47;6.77;;;12.10;99.90;;;;;;4982516;28;20213;-73
2021/10/05 05:06:25;;;;;;;7.40;6.00;;;12.10;99.90;;;;;;4975337;28;20205;-73
2021/10/05 05:08:50;;;;;;;6.40;5.73;;;12.10;99.90;;;;;;4974219;28;20295;-73
2021/10/05 05:11:16;;;;;;;6.47;5.87;;;12.10;99.90;;;;;;4975565;28;20672;-73
2021/10/05 05:13:41;;;;;;;12.57;5.73;;;12.10;99.90;;;;;;4975556;28;20225;-72
2021/10/05 05:16:07;;;;;;;6.47;5.87;;;12.10;99.90;;;;;;5000431;28;20235;-72
2021/10/05 05:18:32;;;;;;;6.23;5.53;;;12.10;99.90;;;;;;4988691;28;20647;-73
2021/10/05 05:20:58;;;;;;;7.67;6.60;;;12.10;99.90;;;;;;4975279;28;20255;-73
2021/10/05 05:23:24;;;;;;;8.10;7.30;;;12.00;99.90;;;;;;4973727;28;20196;-73
2021/10/05 05:25:49;;;;;;;6.83;6.17;;;12.00;99.90;;;;;;4971986;28;20189;-73
2021/10/05 05:28:15;;;;;;;6.27;5.63;;;12.00;99.90;;;;;;4974011;28;20260;-74
2021/10/05 05:30:41;;;;;;;7.50;6.70;;;12.00;99.90;;;;;;4973798;28;20583;-73
2021/10/05 05:33:07;;;;;;;7.40;6.60;;;12.00;99.90;;;;;;4969924;28;20251;-73
2021/10/05 05:35:32;;;;;;;6.50;5.43;;;12.00;99.90;;;;;;4974106;28;20480;-73
2021/10/05 05:37:58;;;;;;;7.10;6.40;;;12.00;99.90;;;;;;4973680;28;20212;-72
2021/10/05 05:40:24;;;;;;;6.77;6.07;;;12.00;99.90;;;;;;4983217;28;20303;-72
2021/10/05 05:42:49;;;;;;;7.00;6.30;;;12.10;99.90;;;;;;4984438;28;20243;-73
2021/10/05 05:45:15;;;;;;;7.33;6.10;;;12.10;99.90;;;;;;4976001;28;20740;-73
2021/10/05 05:47:40;;;;;;;8.60;6.80;;;12.10;99.90;;;;;;4973040;28;20216;-73
2021/10/05 05:50:08;;;;;;;7.13;6.33;;;12.10;99.90;;;;;;4987240;28;20615;-73
2021/10/05 05:52:34;;;;;;;5.90;5.40;;;12.10;99.90;;;;;;4994025;28;20653;-73
2021/10/05 05:54:59;;;;;;;7.90;5.93;;;12.10;99.90;;;;;;4992457;28;20534;-73
2021/10/05 05:57:25;;;;;;;7.47;6.07;;;12.20;99.90;;;;;;4981960;28;20452;-73
2021/10/05 05:59:51;;;;;;;6.40;5.30;;;12.20;99.90;;;;;;4972540;28;20217;-73
2021/10/05 06:02:17;;;;;;;6.77;6.03;;;12.20;99.90;;;;;;4973083;28;20801;-73
2021/10/05 06:04:42;;;;;;;6.90;5.63;;;12.20;99.90;;;;;;4972764;28;20220;-73
2021/10/05 06:07:08;;;;;;;6.33;5.43;;;12.20;99.90;;;;;;4973821;28;20220;-73
2021/10/05 06:09:35;;;;;;;5.77;5.27;;;12.30;99.90;;;;;;4974005;28;20217;-73
2021/10/05 06:12:03;;;;;;;6.90;6.00;;;12.30;99.90;;;;;;4972843;28;20300;-73
2021/10/05 06:14:29;;;;;;;6.80;6.10;;;12.30;99.90;;;;;;4973019;28;20440;-73
2021/10/05 06:16:56;;;;;;;7.50;5.90;;;12.30;99.90;;;;;;4971645;28;20464;-74
2021/10/05 06:19:22;;;;;;;5.93;5.33;;;12.30;99.90;;;;;;4973099;28;20219;-72
2021/10/05 06:21:47;;;;;;;6.30;5.70;;;12.40;99.90;;;;;;4971352;28;20448;-72
2021/10/05 06:24:13;;;;;;;5.13;4.60;;;12.40;99.90;;;;;;4971635;28;20212;-72
2021/10/05 06:26:38;;;;;;;5.23;4.70;;;12.40;99.90;;;;;;4973160;28;20275;-73
2021/10/05 06:29:04;;;;;;;5.97;5.30;;;12.40;99.90;;;;;;4973374;28;20235;-73
2021/10/05 06:31:29;;;;;;;6.53;5.17;;;12.50;99.90;;;;;;4972909;28;20283;-73
2021/10/05 06:33:55;;;;;;;5.87;5.20;;;12.50;99.90;;;;;;4968578;28;20231;-73
2021/10/05 06:36:20;;;;;;;5.00;4.23;;;12.60;99.90;;;;;;4973512;28;20232;-72
2021/10/05 06:38:46;;;;;;;6.40;5.77;;;12.60;99.90;;;;;;4972565;28;20197;-73
2021/10/05 06:41:11;;;;;;;5.83;5.33;;;12.60;99.90;;;;;;4973579;28;20217;-73
2021/10/05 06:43:37;;;;;;;5.43;4.70;;;12.60;99.90;;;;;;4972536;28;20220;-73
2021/10/05 06:46:03;;;;;;;5.00;4.57;;;12.60;99.90;;;;;;4970979;28;20201;-73
2021/10/05 06:48:29;;;;;;;5.70;5.00;;;12.70;99.90;;;;;;4973213;28;20211;-73
2021/10/05 06:50:55;;;;;;;5.60;4.90;;;12.70;99.90;;;;;;4992352;28;20452;-73
2021/10/05 06:53:21;;;;;;;6.73;5.87;;;12.80;99.90;;;;;;4982222;28;20222;-73
2021/10/05 06:55:46;;;;;;;6.50;5.80;;;12.80;99.90;;;;;;4971885;28;20698;-73
2021/10/05 06:58:15;;;;;;;7.00;5.30;;;12.90;99.90;;;;;;4988336;28;20197;-73
2021/10/05 07:00:41;;;;;;;5.10;4.47;;;12.90;99.90;;;;;;4988215;28;20208;-73
2021/10/05 07:03:07;;;;;;;6.23;5.33;;;13.00;99.90;;;;;;4979406;28;20487;-73
2021/10/05 07:05:32;;;;;;;6.37;5.70;;;13.00;99.90;;;;;;4972572;28;20203;-73
2021/10/05 07:07:58;;;;;;;6.37;4.80;;;13.10;99.90;;;;;;4972071;28;20642;-73
2021/10/05 07:10:24;;;;;;;5.13;4.47;;;13.10;99.90;;;;;;4972656;28;20204;-73
2021/10/05 07:12:51;;;;;;;5.20;4.17;;;13.10;99.90;;;;;;4970003;28;20196;-73
2021/10/05 07:15:17;;;;;;;4.87;4.47;;;13.10;99.90;;;;;;4972033;28;20478;-73
2021/10/05 07:17:43;;;;;;;4.00;3.70;;;13.10;99.90;;;;;;4970400;28;20963;-73
2021/10/05 07:20:09;;;;;;;4.03;3.63;;;13.10;99.90;;;;;;4972198;28;20447;-73
2021/10/05 07:22:35;;;;;;;4.17;3.77;;;13.20;99.90;;;;;;4971934;28;21038;-74
2021/10/05 07:25:02;;;;;;;4.30;3.90;;;13.20;99.90;;;;;;4971300;28;20532;-73
2021/10/05 07:27:28;;;;;;;4.53;3.70;;;13.20;99.90;;;;;;4971942;28;20856;-73
2021/10/05 07:29:54;;;;;;;4.27;3.87;;;13.20;99.90;;;;;;4971618;28;20436;-73
2021/10/05 07:32:20;;;;;;;4.27;3.87;;;13.20;99.90;;;;;;4971849;28;20448;-72
2021/10/05 07:34:46;;;;;;;4.20;3.80;;;13.10;99.90;;;;;;4967706;28;20197;-73
2021/10/05 07:37:11;;;;;;;3.80;3.50;;;13.20;99.90;;;;;;4974136;28;20431;-74
2021/10/05 07:39:38;;;;;;;3.80;3.50;;;13.10;99.90;;;;;;4974157;28;20183;-74
2021/10/05 07:42:05;;;;;;;3.83;3.50;;;13.20;99.90;;;;;;4974618;28;20263;-73
2021/10/05 07:44:32;;;;;;;5.03;3.40;;;13.20;99.90;;;;;;4974416;28;20526;-72
2021/10/05 07:46:58;;;;;;;4.27;3.83;;;13.20;99.90;;;;;;4975037;28;20536;-73
2021/10/05 07:49:25;;;;;;;4.07;3.30;;;13.20;99.90;;;;;;4982860;28;20443;-73
2021/10/05 07:51:50;;;;;;;3.70;3.40;;;13.30;99.90;;;;;;4994558;28;20204;-73
2021/10/05 07:54:16;;;;;;;3.90;3.50;;;13.30;99.90;;;;;;4995131;28;20446;-73
2021/10/05 07:56:41;;;;;;;3.43;3.13;;;13.30;99.90;;;;;;4988541;28;20578;-74
2021/10/05 07:59:07;;;;;;;3.53;3.07;;;13.40;99.90;;;;;;4975768;28;21077;-74
2021/10/05 08:01:36;;;;;;;5.90;3.20;;;13.30;99.90;;;;;;4977180;28;20201;-73
2021/10/05 08:04:01;;;;;;;3.10;2.80;;;13.40;99.90;;;;;;4985298;28;20456;-73
2021/10/05 08:06:27;;;;;;;3.33;3.03;;;13.40;99.90;;;;;;4993663;28;20483;-73
2021/10/05 08:08:52;;;;;;;3.13;2.87;;;13.40;99.90;;;;;;4976429;28;20228;-73
2021/10/05 08:11:19;;;;;;;4.57;3.20;;;13.40;99.90;;;;;;4974051;28;20241;-73
2021/10/05 08:13:45;;;;;;;3.37;3.00;;;13.40;99.90;;;;;;4974270;28;20268;-73
2021/10/05 08:16:10;;;;;;;3.63;3.33;;;13.50;99.90;;;;;;4974383;28;20874;-73
2021/10/05 08:18:36;;;;;;;3.67;3.37;;;13.40;99.90;;;;;;4973876;28;20201;-73
2021/10/05 08:21:03;;;;;;;5.73;3.20;;;13.50;99.90;;;;;;4972873;28;20268;-73
2021/10/05 08:23:29;;;;;;;3.17;2.97;;;13.50;99.90;;;;;;4974864;28;20196;-73
2021/10/05 08:25:55;;;;;;;2.77;2.53;;;13.60;99.90;;;;;;4979522;28;20806;-73
2021/10/05 08:28:20;;;;;;;2.33;2.13;;;13.60;99.90;;;;;;4978112;28;20420;-73
2021/10/05 08:30:47;;;;;;;2.90;2.70;;;13.70;99.90;;;;;;4978624;28;20184;-73
2021/10/05 08:33:13;;;;;;;2.50;2.30;;;13.70;99.90;;;;;;4992839;28;20185;-73
2021/10/05 08:35:39;;;;;;;2.60;2.30;;;13.80;99.90;;;;;;4977493;28;20809;-73
2021/10/05 08:38:05;;;;;;;2.57;2.37;;;13.80;99.90;;;;;;4977326;28;20660;-73
2021/10/05 08:40:33;;;;;;;2.73;2.53;;;13.90;99.90;;;;;;4977829;28;20176;-73
2021/10/05 08:42:59;;;;;;;3.40;3.10;;;14.00;99.90;;;;;;4977109;28;20471;-73
2021/10/05 08:45:25;;;;;;;2.87;2.67;;;14.00;99.90;;;;;;4976775;28;20483;-72
2021/10/05 08:47:51;;;;;;;2.70;2.30;;;14.10;99.90;;;;;;4977829;28;20420;-72
2021/10/05 08:50:18;;;;;;;3.00;2.70;;;14.10;99.90;;;;;;4992263;28;20544;-73
2021/10/05 08:52:45;;;;;;;2.73;2.23;;;14.10;99.90;;;;;;4991937;28;20227;-73
2021/10/05 08:55:11;;;;;;;4.67;2.70;;;14.10;99.90;;;;;;4977788;28;20467;-72
2021/10/05 08:57:37;;;;;;;3.47;2.33;;;14.20;99.90;;;;;;4978807;28;20444;-73
2021/10/05 09:00:05;;;;;;;2.77;2.57;;;14.20;99.90;;;;;;4979208;28;20425;-73
2021/10/05 09:02:41;;;;;;;2.57;2.37;;;14.30;99.90;;;;;;4996394;28;20185;-73
2021/10/05 09:05:12;;;;;;;2.73;2.00;;;14.30;99.90;;;;;;4982686;28;20443;-73
2021/10/05 09:07:45;;;;;;;2.33;2.13;;;14.30;99.90;;;;;;4977295;28;20497;-73
2021/10/05 09:10:13;;;;;;;2.70;2.37;;;14.30;99.90;;;;;;4977304;28;20181;-73
2021/10/05 09:12:39;;;;;;;2.80;2.60;;;14.30;99.90;;;;;;4977576;28;20807;-73
2021/10/05 09:15:08;;;;;;;2.00;1.90;;;14.40;99.90;;;;;;4989767;28;20448;-73
2021/10/05 09:17:34;;;;;;;2.50;2.30;;;14.50;99.90;;;;;;4977424;28;20189;-73
2021/10/05 09:19:59;;;;;;;2.40;2.20;;;14.60;99.90;;;;;;4976976;28;20495;-73
2021/10/05 09:22:28;;;;;;;3.20;2.53;;;14.60;99.90;;;;;;4986344;28;20243;-74
2021/10/05 09:24:56;;;;;;;2.23;2.03;;;14.60;99.90;;;;;;4975848;28;20249;-72
2021/10/05 09:27:22;;;;;;;1.83;1.73;;;14.70;99.90;;;;;;4976915;28;20491;-72
2021/10/05 09:29:49;;;;;;;2.57;2.37;;;14.80;99.90;;;;;;4977254;28;20768;-73
2021/10/05 09:32:16;;;;;;;2.10;2.00;;;14.90;99.90;;;;;;4976705;28;20809;-73
2021/10/05 09:34:54;;;;;;;1.97;1.73;;;15.00;99.90;;;;;;4976226;28;20432;-73
2021/10/05 09:37:32;;;;;;;1.70;1.50;;;15.10;99.90;;;;;;4976742;28;20756;-72
2021/10/05 09:40:10;;;;;;;1.50;1.40;;;15.20;99.90;;;;;;4975201;28;20397;-73
2021/10/05 09:42:41;;;;;;;1.50;1.40;;;15.30;99.90;;;;;;4976351;28;20510;-73
2021/10/05 09:45:10;;;;;;;1.60;1.50;;;15.40;99.90;;;;;;4974788;28;20544;-73
2021/10/05 09:47:40;;;;;;;2.30;1.77;;;15.40;99.90;;;;;;4976533;28;20416;-73
2021/10/05 09:50:09;;;;;;;2.47;1.57;;;15.60;99.90;;;;;;4989773;28;20499;-73
2021/10/05 09:52:39;;;;;;;2.80;1.37;;;15.60;99.90;;;;;;4994907;28;20411;-73
2021/10/05 09:55:05;;;;;;;1.83;1.70;;;15.60;99.90;;;;;;4957048;29;20460;-72
2021/10/05 09:57:31;;;;;;;1.73;1.30;;;15.70;99.90;;;;;;4958847;28;20540;-73
2021/10/05 09:59:56;;;;;;;1.27;1.17;;;15.80;99.90;;;;;;4957345;29;20536;-73
2021/10/05 10:02:23;;;;;;;1.53;1.43;;;15.90;99.90;;;;;;4956460;29;20284;-73
2021/10/05 10:04:50;;;;;;;1.70;1.43;;;16.00;99.90;;;;;;4970365;28;20183;-73
2021/10/05 10:07:15;;;;;;;3.00;1.20;;;16.00;99.90;;;;;;4975838;28;20428;-73
2021/10/05 10:09:41;;;;;;;1.50;1.37;;;16.00;99.90;;;;;;4974967;28;20443;-73
2021/10/05 10:12:07;;;;;;;1.57;1.47;;;16.00;99.90;;;;;;4975870;28;20173;-73
2021/10/05 10:14:33;;;;;;;1.40;1.30;;;16.10;99.90;;;;;;4975792;28;20420;-73
2021/10/05 10:16:59;;;;;;;1.73;1.60;;;16.10;99.90;;;;;;4975565;28;20626;-73
2021/10/05 10:19:30;;;;;;;4.53;1.40;;;16.20;99.90;;;;;;4976268;28;20459;-73
2021/10/05 10:22:11;;;;;;;1.40;1.30;;;16.20;99.90;;;;;;4976290;28;20613;-73
2021/10/05 10:24:52;;;;;;;1.90;1.40;;;16.40;99.90;;;;;;4967671;28;20985;-73
2021/10/05 10:27:19;;;;;;;1.73;1.43;;;16.40;99.90;;;;;;4973763;28;20547;-73
2021/10/05 10:29:45;;;;;;;2.80;1.57;;;16.50;99.90;;;;;;4973168;28;20474;-74
2021/10/05 10:32:15;;;;;;;1.40;1.30;;;16.50;99.90;;;;;;4973833;28;20448;-74
2021/10/05 10:34:43;;;;;;;1.53;1.43;;;16.60;99.90;;;;;;4989224;28;20921;-73
2021/10/05 10:37:26;;;;;;;1.70;1.60;;;16.60;99.90;;;;;;4972764;28;20499;-73
2021/10/05 10:39:54;;;;;;;1.70;1.60;;;16.70;99.90;;;;;;4973685;28;20460;-73
2021/10/05 10:42:28;;;;;;;1.67;1.30;;;16.70;99.90;;;;;;4976295;28;20472;-73
2021/10/05 10:44:54;;;;;;;2.03;1.57;;;16.70;99.90;;;;;;4983514;28;20490;-73
2021/10/05 10:47:24;;;;;;;1.60;1.50;;;16.80;99.90;;;;;;4983726;28;20456;-74
2021/10/05 10:49:59;;;;;;;1.70;1.60;;;16.80;99.90;;;;;;4982586;28;20487;-72
2021/10/05 10:52:30;;;;;;;1.73;1.63;;;16.80;99.90;;;;;;4981927;28;20477;-73
2021/10/05 10:54:57;;;;;;;3.10;1.60;;;16.80;99.90;;;;;;4980377;28;20527;-73
2021/10/05 10:57:52;;;;;;;4.10;1.20;;;16.80;99.90;;;;;;4982960;28;20455;-73
2021/10/05 11:00:26;;;;;;;1.67;1.50;;;16.90;99.90;;;;;;4979738;28;20417;-71
2021/10/05 11:02:57;;;;;;;2.65;1.50;;;17.00;99.90;;;;;;4981748;28;20532;-72
2021/10/05 11:05:24;;;;;;;2.87;1.17;;;17.00;99.90;;;;;;4961986;28;20244;-72
2021/10/05 11:07:57;;;;;;;2.40;1.40;;;17.10;99.90;;;;;;4955585;28;20425;-73
2021/10/05 11:10:29;;;;;;;1.23;1.13;;;17.10;99.90;;;;;;4956525;28;20393;-72
2021/10/05 11:13:01;;;;;;;1.57;1.47;;;17.10;99.90;;;;;;4955350;28;20413;-73
2021/10/05 11:15:35;;;;;;;1.93;1.40;;;17.10;99.90;;;;;;4972149;28;20451;-73
2021/10/05 11:18:13;;;;;;;1.50;1.30;;;17.10;99.90;;;;;;4974640;28;20443;-73
2021/10/05 11:20:50;;;;;;;1.63;1.30;;;17.10;99.90;;;;;;4975409;28;20463;-73
2021/10/05 11:23:21;;;;;;;2.50;1.50;;;17.10;99.90;;;;;;4979312;28;20463;-73
2021/10/05 11:25:51;;;;;;;3.03;1.30;;;17.20;99.90;;;;;;4977219;28;20503;-73
2021/10/05 11:28:21;;;;;;;2.20;1.60;;;17.30;99.90;;;;;;4975466;28;20412;-73
2021/10/05 11:30:48;;;;;;;2.10;1.30;;;17.20;99.90;;;;;;4974984;28;20518;-72
2021/10/05 11:33:19;;;;;;;2.10;1.37;;;17.30;99.90;;;;;;4974890;28;20412;-72
2021/10/05 11:35:45;;;;;;;1.73;1.10;;;17.40;99.90;;;;;;4974694;28;20448;-72
2021/10/05 11:38:13;;;;;;;1.30;1.17;;;17.30;99.90;;;;;;4974774;28;20426;-73
2021/10/05 11:40:49;;;;;;;1.40;1.30;;;17.30;99.90;;;;;;4974645;28;20706;-72
2021/10/05 11:43:15;;;;;;;1.93;1.70;;;17.30;99.90;;;;;;4973440;28;20805;-73
2021/10/05 11:45:41;;;;;;;2.97;1.70;;;17.30;99.90;;;;;;4974725;28;20527;-73
2021/10/05 11:48:06;;;;;;;1.80;1.50;;;17.30;99.90;;;;;;4979482;28;20169;-73
2021/10/05 11:50:32;;;;;;;2.27;1.30;;;17.20;99.90;;;;;;4994437;28;20184;-73
2021/10/05 11:52:57;;;;;;;2.33;1.33;;;17.20;99.90;;;;;;4994404;28;20616;-73
2021/10/05 11:55:23;;;;;;;3.10;1.43;;;17.20;99.90;;;;;;4980309;28;20215;-74
2021/10/05 11:57:54;;;;;;;6.20;1.50;;;17.20;99.90;;;;;;4982617;28;20188;-71
2021/10/05 12:00:20;;;;;;;2.93;1.47;;;17.20;99.90;;;;;;4999345;28;20177;-72
2021/10/05 12:02:46;;;;;;;1.97;1.77;;;17.20;99.90;;;;;;4979850;28;20460;-73
2021/10/05 12:05:22;;;;;;;1.70;1.37;;;17.30;99.90;;;;;;4978685;28;20192;-73
2021/10/05 12:07:48;;;;;;;1.87;1.40;;;17.30;99.90;;;;;;4979174;28;20502;-71
2021/10/05 12:10:14;;;;;;;1.50;1.40;;;17.50;99.90;;;;;;4980115;28;20419;-73
2021/10/05 12:12:40;;;;;;;2.17;1.40;;;17.50;99.90;;;;;;4978919;28;20231;-74
2021/10/05 12:15:10;;;;;;;1.50;1.40;;;17.60;99.90;;;;;;4977257;28;20192;-73
2021/10/05 12:17:35;;;;;;;1.70;1.60;;;17.60;99.90;;;;;;4975843;28;20467;-73
2021/10/05 12:20:07;;;;;;;1.63;1.53;;;17.50;99.90;;;;;;4978261;28;20400;-73
2021/10/05 12:22:37;;;;;;;3.40;1.37;;;17.50;99.90;;;;;;4980187;28;20173;-72
2021/10/05 12:25:05;;;;;;;1.80;1.40;;;17.50;99.90;;;;;;4999596;28;20440;-72
2021/10/05 12:27:30;;;;;;;2.80;2.13;;;17.50;99.90;;;;;;4978976;28;20989;-73
2021/10/05 12:30:07;;;;;;;2.40;1.80;;;17.60;99.90;;;;;;4965916;28;20535;-73
2021/10/05 12:32:37;;;;;;;2.13;1.63;;;17.70;99.90;;;;;;4956931;28;20198;-73
2021/10/05 12:35:27;;;;;;;1.87;1.73;;;17.70;99.90;;;;;;4956355;28;20445;-73
2021/10/05 12:38:00;;;;;;;5.00;2.23;;;17.80;99.90;;;;;;4967299;28;20448;-74
2021/10/05 12:40:37;;;;;;;3.63;2.00;;;17.80;99.90;;;;;;4974561;28;20467;-73
2021/10/05 12:43:03;;;;;;;2.50;1.30;;;17.80;99.90;;;;;;4970724;28;20488;-73
2021/10/05 12:45:28;;;;;;;3.63;1.40;;;17.80;99.90;;;;;;4966548;28;20552;-73
2021/10/05 12:48:03;;;;;;;1.60;1.30;;;17.80;99.90;;;;;;4963477;28;20292;-73